createdAt,value
2023-05-17T00:00:10.129Z,11.29
2023-05-17T00:02:37.580Z,11.21
2023-05-17T00:05:21.018Z,11.19
2023-05-17T00:08:10.032Z,11.15
2023-05-17T00:10:52.983Z,11.18
2023-05-17T00:13:35.649Z,11.13
2023-05-17T00:16:02.642Z,11.12
2023-05-17T00:18:29.629Z,11.08
2023-05-17T00:20:56.845Z,11.03
2023-05-17T00:23:23.743Z,11.03
2023-05-17T00:25:51.433Z,11.02
2023-05-17T00:28:18.402Z,11.10
2023-05-17T00:30:45.373Z,11.10
2023-05-17T00:33:12.327Z,11.09
2023-05-17T00:35:39.355Z,11.12
2023-05-17T00:38:06.357Z,11.10
2023-05-17T00:40:33.310Z,11.09
2023-05-17T00:43:00.281Z,11.10
2023-05-17T00:45:27.639Z,11.10
2023-05-17T00:47:54.872Z,11.05
2023-05-17T00:50:21.961Z,11.03
2023-05-17T00:52:49.247Z,11.03
2023-05-17T00:55:16.370Z,11.02
2023-05-17T00:57:43.373Z,10.97
2023-05-17T01:00:10.986Z,11.00
2023-05-17T01:02:38.249Z,10.98
2023-05-17T01:05:23.809Z,11.00
2023-05-17T01:08:08.748Z,10.96
2023-05-17T01:11:15.104Z,10.94
2023-05-17T01:14:40.704Z,10.98
2023-05-17T01:17:36.307Z,10.96
2023-05-17T01:20:27.097Z,10.92
2023-05-17T01:23:15.316Z,10.94
2023-05-17T01:26:15.785Z,10.96
2023-05-17T01:28:46.894Z,10.97
2023-05-17T01:31:15.225Z,11.02
2023-05-17T01:33:42.331Z,10.96
2023-05-17T01:36:09.709Z,11.02
2023-05-17T01:38:36.730Z,11.06
2023-05-17T01:41:29.784Z,10.99
2023-05-17T01:44:21.165Z,10.95
2023-05-17T01:46:53.539Z,10.98
2023-05-17T01:49:30.192Z,10.97
2023-05-17T01:52:09.172Z,11.01
2023-05-17T01:55:09.333Z,11.00
2023-05-17T01:57:37.709Z,10.93
2023-05-17T02:00:11.958Z,11.02
2023-05-17T02:02:39.018Z,11.04
2023-05-17T02:05:06.453Z,11.08
2023-05-17T02:07:33.499Z,11.03
2023-05-17T02:10:00.492Z,10.98
2023-05-17T02:12:27.438Z,11.01
2023-05-17T02:14:54.625Z,10.78
2023-05-17T02:17:21.590Z,11.00
2023-05-17T02:19:48.640Z,11.01
2023-05-17T02:22:15.613Z,10.85
2023-05-17T02:24:42.619Z,11.05
2023-05-17T02:27:09.603Z,11.04
2023-05-17T02:29:36.613Z,11.02
2023-05-17T02:32:03.829Z,11.04
2023-05-17T02:34:30.754Z,11.05
2023-05-17T02:36:58.932Z,11.03
2023-05-17T02:39:25.884Z,11.01
2023-05-17T02:41:52.851Z,11.00
2023-05-17T02:44:19.776Z,11.00
2023-05-17T02:46:47.091Z,11.03
2023-05-17T02:49:14.093Z,11.00
2023-05-17T02:51:41.140Z,10.98
2023-05-17T02:54:08.157Z,11.01
2023-05-17T02:56:35.221Z,10.95
2023-05-17T02:59:02.216Z,10.98
2023-05-17T03:01:29.232Z,11.02
2023-05-17T03:03:56.345Z,11.06
2023-05-17T03:06:23.500Z,11.02
2023-05-17T03:08:50.575Z,11.03
2023-05-17T03:11:17.541Z,11.08
2023-05-17T03:13:46.590Z,11.11
2023-05-17T03:16:13.586Z,11.10
2023-05-17T03:18:40.751Z,11.15
2023-05-17T03:21:07.804Z,11.16
2023-05-17T03:23:34.746Z,11.13
2023-05-17T03:26:01.718Z,11.12
2023-05-17T03:28:28.697Z,11.08
2023-05-17T03:30:55.870Z,11.11
2023-05-17T03:33:23.021Z,11.06
2023-05-17T03:35:49.991Z,11.02
2023-05-17T03:38:17.241Z,11.03
2023-05-17T03:40:44.333Z,11.03
2023-05-17T03:43:11.273Z,10.98
2023-05-17T03:45:38.167Z,10.99
2023-05-17T03:48:05.795Z,10.98
2023-05-17T03:50:33.021Z,10.95
2023-05-17T03:52:59.968Z,10.97
2023-05-17T03:55:27.240Z,10.93
2023-05-17T03:57:54.248Z,10.92
2023-05-17T04:00:24.859Z,10.90
2023-05-17T04:02:52.472Z,10.98
2023-05-17T04:05:20.596Z,10.91
2023-05-17T04:07:48.283Z,10.94
2023-05-17T04:10:16.730Z,10.90
2023-05-17T04:12:43.673Z,10.88
2023-05-17T04:15:11.070Z,10.92
2023-05-17T04:17:38.101Z,10.95
2023-05-17T04:20:06.966Z,10.99
2023-05-17T04:22:34.137Z,11.00
2023-05-17T04:25:01.643Z,10.95
2023-05-17T04:27:29.004Z,10.86
2023-05-17T04:29:56.453Z,10.80
2023-05-17T04:32:24.393Z,10.85
2023-05-17T04:34:52.372Z,10.83
2023-05-17T04:37:19.541Z,10.84
2023-05-17T04:39:46.508Z,10.79
2023-05-17T04:42:13.560Z,10.81
2023-05-17T04:44:40.805Z,10.73
2023-05-17T04:47:08.408Z,10.68
2023-05-17T04:49:35.319Z,10.70
2023-05-17T04:52:04.034Z,10.67
2023-05-17T04:54:32.324Z,10.60
2023-05-17T04:56:59.290Z,10.67
2023-05-17T04:59:26.258Z,10.60
2023-05-17T05:01:53.183Z,10.55
2023-05-17T05:04:20.238Z,10.59
2023-05-17T05:06:47.546Z,10.66
2023-05-17T05:09:14.488Z,10.57
2023-05-17T05:11:41.432Z,10.53
2023-05-17T05:14:08.444Z,10.52
2023-05-17T05:16:35.449Z,10.41
2023-05-17T05:19:02.839Z,10.46
2023-05-17T05:21:31.147Z,10.42
2023-05-17T05:23:58.095Z,10.49
2023-05-17T05:26:25.057Z,10.41
2023-05-17T05:28:52.260Z,10.43
2023-05-17T05:31:19.282Z,10.42
2023-05-17T05:33:46.355Z,10.46
2023-05-17T05:36:13.376Z,10.42
2023-05-17T05:38:40.337Z,10.41
2023-05-17T05:41:07.275Z,10.35
2023-05-17T05:43:36.320Z,10.35
2023-05-17T05:46:03.666Z,10.35
2023-05-17T05:48:30.902Z,10.34
2023-05-17T05:50:57.946Z,10.37
2023-05-17T05:53:24.886Z,10.31
2023-05-17T05:55:52.385Z,10.33
2023-05-17T05:58:19.304Z,10.38
2023-05-17T06:00:46.266Z,10.33
2023-05-17T06:03:13.203Z,10.33
2023-05-17T06:05:40.730Z,10.34
2023-05-17T06:08:07.838Z,10.32
2023-05-17T06:10:34.815Z,10.28
2023-05-17T06:13:02.016Z,10.19
2023-05-17T06:15:29.104Z,10.24
2023-05-17T06:17:56.117Z,10.18
2023-05-17T06:20:23.703Z,10.19
2023-05-17T06:22:50.831Z,10.20
2023-05-17T06:25:17.878Z,10.18
2023-05-17T06:27:44.938Z,10.18
2023-05-17T06:30:12.626Z,10.23
2023-05-17T06:32:39.613Z,10.24
2023-05-17T06:35:07.267Z,10.25
2023-05-17T06:37:34.306Z,10.25
2023-05-17T06:40:15.075Z,10.27
2023-05-17T06:42:43.638Z,10.24
2023-05-17T06:45:11.284Z,10.20
2023-05-17T06:47:38.611Z,10.19
2023-05-17T06:50:07.126Z,10.26
2023-05-17T06:52:34.145Z,10.16
2023-05-17T06:55:01.102Z,10.13
2023-05-17T06:57:28.224Z,10.06
2023-05-17T06:59:55.155Z,10.17
2023-05-17T07:02:22.286Z,10.13
2023-05-17T07:04:49.282Z,10.13
2023-05-17T07:07:16.294Z,10.10
2023-05-17T07:09:43.330Z,10.07
2023-05-17T07:12:10.244Z,10.05
2023-05-17T07:14:37.260Z,10.08
2023-05-17T07:17:04.446Z,10.14
2023-05-17T07:19:31.719Z,10.19
2023-05-17T07:21:58.684Z,10.13
2023-05-17T07:24:25.711Z,10.16
2023-05-17T07:26:52.945Z,10.11
2023-05-17T07:29:20.028Z,9.94
2023-05-17T07:31:47.083Z,9.89
2023-05-17T07:34:14.341Z,9.72
2023-05-17T07:36:41.637Z,9.73
2023-05-17T07:39:09.430Z,9.63
2023-05-17T07:41:37.192Z,9.58
2023-05-17T07:44:04.208Z,9.59
2023-05-17T07:46:31.270Z,9.48
2023-05-17T07:48:58.958Z,9.39
2023-05-17T07:51:26.568Z,9.29
2023-05-17T07:53:53.613Z,9.25
2023-05-17T07:56:20.792Z,9.15
2023-05-17T07:58:47.748Z,9.15
2023-05-17T08:01:14.800Z,9.09
2023-05-17T08:03:48.286Z,9.09
2023-05-17T08:06:19.172Z,9.06
2023-05-17T08:08:46.255Z,8.96
2023-05-17T08:11:15.142Z,8.98
2023-05-17T08:13:42.117Z,8.91
2023-05-17T08:16:14.039Z,8.93
2023-05-17T08:18:42.763Z,8.95
2023-05-17T08:21:10.171Z,8.94
2023-05-17T08:23:37.116Z,8.93
2023-05-17T08:26:04.088Z,8.96
2023-05-17T08:28:31.040Z,9.05
2023-05-17T08:30:58.564Z,8.91
2023-05-17T08:33:26.419Z,8.98
2023-05-17T08:35:55.619Z,9.02
2023-05-17T08:38:22.829Z,8.98
2023-05-17T08:40:56.756Z,9.03
2023-05-17T08:43:26.865Z,9.08
2023-05-17T08:45:58.181Z,9.01
2023-05-17T08:48:31.836Z,9.01
2023-05-17T08:51:00.339Z,9.03
2023-05-17T08:53:27.673Z,9.08
2023-05-17T08:56:01.399Z,9.10
2023-05-17T08:58:36.068Z,9.13
2023-05-17T09:01:10.069Z,8.79
2023-05-17T09:03:41.591Z,9.18
2023-05-17T09:06:11.219Z,9.24
2023-05-17T09:08:38.572Z,9.24
2023-05-17T09:11:05.789Z,9.23
2023-05-17T09:13:32.731Z,9.17
2023-05-17T09:15:59.726Z,9.09
2023-05-17T09:18:34.269Z,9.16
2023-05-17T09:21:07.478Z,9.19
2023-05-17T09:23:34.457Z,9.22
2023-05-17T09:26:06.550Z,9.25
2023-05-17T09:28:39.636Z,9.33
2023-05-17T09:31:11.263Z,9.26
2023-05-17T09:33:48.494Z,9.17
2023-05-17T09:36:20.304Z,9.12
2023-05-17T09:38:59.558Z,9.07
2023-05-17T09:41:27.927Z,9.09
2023-05-17T09:43:59.020Z,9.11
2023-05-17T09:46:26.128Z,9.14
2023-05-17T09:48:57.038Z,8.96
2023-05-17T09:51:44.016Z,9.05
2023-05-17T09:54:11.802Z,8.99
2023-05-17T09:56:39.326Z,8.97
2023-05-17T09:59:13.432Z,9.06
2023-05-17T10:01:48.263Z,8.98
2023-05-17T10:04:20.844Z,9.00
2023-05-17T10:06:52.295Z,8.91
2023-05-17T10:09:22.980Z,9.00
2023-05-17T10:11:52.872Z,8.96
2023-05-17T10:14:27.719Z,8.98
2023-05-17T10:16:55.566Z,9.05
2023-05-17T10:19:25.128Z,8.95
2023-05-17T10:21:53.645Z,9.01
2023-05-17T10:24:21.983Z,9.04
2023-05-17T10:26:52.452Z,9.05
2023-05-17T10:29:22.817Z,9.12
2023-05-17T10:31:52.134Z,9.10
2023-05-17T10:34:20.574Z,9.11
2023-05-17T10:36:50.264Z,9.20
2023-05-17T10:39:17.480Z,9.15
2023-05-17T10:41:46.960Z,9.26
2023-05-17T10:44:16.547Z,9.21
2023-05-17T10:46:57.571Z,9.16
2023-05-17T10:49:32.013Z,9.15
2023-05-17T10:52:11.580Z,9.15
2023-05-17T10:54:42.866Z,8.99
2023-05-17T10:57:39.098Z,8.85
2023-05-17T11:00:21.196Z,8.85
2023-05-17T11:02:49.313Z,8.75
2023-05-17T11:05:27.632Z,8.79
2023-05-17T11:08:17.480Z,8.75
2023-05-17T11:11:10.715Z,8.70
2023-05-17T11:13:58.387Z,8.72
2023-05-17T11:16:35.929Z,8.65
2023-05-17T11:19:11.610Z,8.65
2023-05-17T11:21:48.694Z,8.63
2023-05-17T11:24:29.585Z,8.62
2023-05-17T11:27:00.472Z,8.67
2023-05-17T11:29:33.791Z,8.74
2023-05-17T11:32:07.916Z,8.71
2023-05-17T11:34:35.176Z,8.74
2023-05-17T11:37:04.907Z,8.62
2023-05-17T11:39:32.045Z,8.66
2023-05-17T11:41:59.004Z,8.64
2023-05-17T11:44:33.429Z,8.58
2023-05-17T11:47:11.668Z,8.72
2023-05-17T11:49:40.128Z,8.66
2023-05-17T11:52:08.321Z,8.69
2023-05-17T11:54:37.978Z,8.71
2023-05-17T11:57:05.817Z,8.70
2023-05-17T11:59:41.398Z,8.71
2023-05-17T12:02:08.662Z,8.78
2023-05-17T12:04:40.643Z,8.78
2023-05-17T12:07:11.980Z,8.84
2023-05-17T12:09:40.916Z,8.82
2023-05-17T12:12:08.901Z,8.87
2023-05-17T12:14:36.050Z,8.89
2023-05-17T12:17:06.089Z,8.87
2023-05-17T12:19:33.414Z,8.92
2023-05-17T12:22:13.042Z,8.95
2023-05-17T12:24:43.765Z,8.83
2023-05-17T12:27:11.549Z,8.93
2023-05-17T12:29:39.747Z,8.87
2023-05-17T12:32:08.931Z,8.75
2023-05-17T12:34:36.399Z,8.74
2023-05-17T12:37:04.087Z,8.66
2023-05-17T12:39:31.897Z,8.58
2023-05-17T12:41:59.509Z,8.58
2023-05-17T12:44:26.622Z,8.54
2023-05-17T12:46:57.944Z,8.54
2023-05-17T12:49:25.059Z,8.47
2023-05-17T12:51:52.142Z,8.47
2023-05-17T12:54:24.929Z,8.51
2023-05-17T12:56:52.058Z,8.05
2023-05-17T12:59:25.624Z,8.48
2023-05-17T13:01:57.824Z,8.48
2023-05-17T13:04:33.691Z,8.55
2023-05-17T13:07:02.933Z,8.51
2023-05-17T13:09:31.499Z,8.55
2023-05-17T13:12:05.898Z,8.49
2023-05-17T13:14:46.898Z,8.47
2023-05-17T13:17:35.203Z,8.40
2023-05-17T13:20:02.552Z,8.46
2023-05-17T13:22:29.624Z,8.34
2023-05-17T13:24:56.696Z,8.39
2023-05-17T13:27:23.669Z,8.39
2023-05-17T13:29:50.972Z,8.36
2023-05-17T13:32:17.985Z,8.23
2023-05-17T13:34:44.970Z,8.20
2023-05-17T13:37:12.898Z,8.20
2023-05-17T13:39:41.812Z,8.19
2023-05-17T13:42:09.892Z,8.18
2023-05-17T13:44:38.557Z,8.26
2023-05-17T13:47:06.040Z,8.25
2023-05-17T13:49:32.968Z,8.28
2023-05-17T13:52:00.912Z,8.28
2023-05-17T13:54:28.044Z,8.31
2023-05-17T13:56:55.810Z,8.25
2023-05-17T13:59:22.907Z,8.34
2023-05-17T14:01:49.802Z,8.42
2023-05-17T14:04:16.758Z,8.45
2023-05-17T14:06:43.682Z,8.38
2023-05-17T14:09:10.913Z,8.50
2023-05-17T14:11:37.990Z,8.42
2023-05-17T14:14:04.970Z,8.40
2023-05-17T14:16:32.174Z,8.35
2023-05-17T14:19:01.148Z,8.46
2023-05-17T14:21:29.848Z,8.37
2023-05-17T14:23:56.964Z,8.41
2023-05-17T14:26:23.975Z,8.50
2023-05-17T14:28:51.015Z,8.49
2023-05-17T14:31:18.051Z,8.59
2023-05-17T14:33:45.015Z,8.54
2023-05-17T14:36:13.922Z,8.46
2023-05-17T14:38:41.291Z,8.48
2023-05-17T14:41:08.329Z,8.45
2023-05-17T14:43:35.293Z,8.54
2023-05-17T14:46:02.220Z,8.53
2023-05-17T14:48:29.222Z,8.52
2023-05-17T14:50:56.302Z,8.49
2023-05-17T14:53:23.703Z,8.49
2023-05-17T14:55:50.745Z,8.51
2023-05-17T14:58:17.771Z,8.44
2023-05-17T15:00:48.567Z,8.46
2023-05-17T15:03:21.748Z,8.51
2023-05-17T15:05:57.152Z,8.52
2023-05-17T15:08:24.155Z,8.58
2023-05-17T15:10:51.836Z,8.58
2023-05-17T15:13:18.831Z,8.60
2023-05-17T15:15:47.040Z,8.62
2023-05-17T15:18:14.274Z,8.65
2023-05-17T15:20:42.490Z,8.56
2023-05-17T15:23:09.568Z,8.61
2023-05-17T15:25:36.994Z,8.61
2023-05-17T15:28:04.129Z,8.57
2023-05-17T15:30:31.154Z,8.63
2023-05-17T15:32:59.706Z,8.60
2023-05-17T15:35:27.589Z,8.54
2023-05-17T15:37:54.977Z,8.64
2023-05-17T15:40:25.139Z,8.66
2023-05-17T15:42:54.080Z,8.68
2023-05-17T15:45:23.357Z,8.56
2023-05-17T15:47:51.676Z,8.62
2023-05-17T15:50:18.718Z,8.64
2023-05-17T15:52:50.267Z,8.58
2023-05-17T15:55:19.870Z,8.63
2023-05-17T15:57:47.393Z,8.71
2023-05-17T16:00:14.785Z,8.78
2023-05-17T16:02:41.765Z,8.77
2023-05-17T16:05:09.253Z,8.82
2023-05-17T16:07:36.211Z,8.74
2023-05-17T16:10:03.317Z,8.80
2023-05-17T16:12:30.378Z,8.81
2023-05-17T16:14:57.870Z,8.74
2023-05-17T16:17:24.832Z,8.79
2023-05-17T16:19:51.963Z,8.80
2023-05-17T16:22:19.012Z,8.79
2023-05-17T16:24:45.927Z,8.83
2023-05-17T16:27:15.072Z,8.77
2023-05-17T16:29:44.005Z,8.85
2023-05-17T16:32:13.565Z,8.81
2023-05-17T16:34:43.674Z,8.84
2023-05-17T16:37:12.469Z,8.89
2023-05-17T16:39:41.386Z,8.83
2023-05-17T16:42:10.932Z,8.88
2023-05-17T16:44:40.252Z,8.85
2023-05-17T16:47:08.434Z,8.94
2023-05-17T16:49:42.239Z,8.93
2023-05-17T16:52:09.571Z,8.89
2023-05-17T16:54:37.020Z,8.86
2023-05-17T16:57:07.173Z,8.96
2023-05-17T16:59:35.396Z,8.92
2023-05-17T17:02:02.521Z,8.63
2023-05-17T17:04:29.423Z,8.88
2023-05-17T17:06:56.470Z,8.94
2023-05-17T17:09:23.360Z,8.56
2023-05-17T17:11:50.368Z,8.84
2023-05-17T17:14:17.906Z,8.91
2023-05-17T17:16:45.220Z,8.94
2023-05-17T17:19:12.342Z,8.84
2023-05-17T17:21:39.519Z,8.85
2023-05-17T17:24:07.128Z,8.77
2023-05-17T17:26:35.698Z,8.85
2023-05-17T17:29:06.712Z,8.82
2023-05-17T17:31:33.736Z,8.82
2023-05-17T17:34:00.759Z,8.85
2023-05-17T17:36:27.909Z,8.81
2023-05-17T17:38:54.822Z,8.87
2023-05-17T17:41:21.944Z,8.88
2023-05-17T17:43:49.567Z,8.89
2023-05-17T17:46:16.659Z,8.85
2023-05-17T17:48:43.573Z,8.93
2023-05-17T17:51:10.600Z,8.63
2023-05-17T17:53:37.589Z,8.91
2023-05-17T17:56:06.825Z,8.82
2023-05-17T17:58:33.843Z,8.91
2023-05-17T18:01:00.945Z,8.91
2023-05-17T18:03:27.885Z,8.89
2023-05-17T18:05:54.832Z,8.87
2023-05-17T18:08:21.804Z,8.91
2023-05-17T18:10:48.753Z,8.99
2023-05-17T18:13:15.690Z,9.05
2023-05-17T18:15:42.657Z,8.97
2023-05-17T18:18:09.754Z,9.01
2023-05-17T18:20:37.153Z,8.99
2023-05-17T18:23:04.220Z,8.89
2023-05-17T18:25:31.152Z,8.91
2023-05-17T18:27:58.118Z,8.90
2023-05-17T18:30:25.257Z,8.91
2023-05-17T18:32:52.324Z,8.96
2023-05-17T18:35:19.259Z,8.98
2023-05-17T18:37:46.279Z,8.88
2023-05-17T18:40:15.002Z,8.86
2023-05-17T18:42:41.979Z,8.85
2023-05-17T18:45:09.418Z,8.91
2023-05-17T18:47:36.395Z,8.88
2023-05-17T18:50:03.379Z,8.87
2023-05-17T18:52:30.371Z,8.84
2023-05-17T18:54:57.466Z,8.87
2023-05-17T18:57:24.415Z,8.91
2023-05-17T18:59:51.370Z,8.59
2023-05-17T19:03:11.348Z,8.89
2023-05-17T19:05:38.338Z,8.87
2023-05-17T19:08:05.390Z,8.85
2023-05-17T19:10:32.694Z,8.86
2023-05-17T19:13:00.162Z,8.85
2023-05-17T19:15:27.161Z,8.83
2023-05-17T19:17:54.224Z,8.82
2023-05-17T19:20:21.573Z,8.88
2023-05-17T19:22:48.508Z,8.89
2023-05-17T19:25:16.519Z,8.86
2023-05-17T19:27:44.265Z,8.84
2023-05-17T19:30:11.435Z,8.84
2023-05-17T19:32:38.431Z,8.89
2023-05-17T19:35:05.927Z,8.90
2023-05-17T19:37:32.897Z,8.88
2023-05-17T19:40:00.035Z,8.86
2023-05-17T19:42:27.023Z,8.84
2023-05-17T19:44:55.294Z,8.86
2023-05-17T19:47:22.496Z,8.83
2023-05-17T19:49:49.480Z,8.91
2023-05-17T19:52:16.553Z,8.83
2023-05-17T19:54:43.503Z,8.88
2023-05-17T19:57:11.385Z,8.87
2023-05-17T19:59:39.658Z,8.91
2023-05-17T20:02:07.171Z,8.85
2023-05-17T20:04:34.555Z,8.85
2023-05-17T20:07:01.490Z,8.86
2023-05-17T20:09:30.550Z,8.89
2023-05-17T20:11:57.624Z,8.90
2023-05-17T20:14:24.916Z,8.87
2023-05-17T20:16:51.890Z,8.90
2023-05-17T20:19:18.923Z,8.86
2023-05-17T20:21:46.149Z,8.86
2023-05-17T20:24:13.163Z,8.82
2023-05-17T20:26:40.286Z,8.87
2023-05-17T20:29:08.496Z,8.88
2023-05-17T20:31:36.905Z,8.87
2023-05-17T20:34:05.222Z,8.89
2023-05-17T20:36:32.613Z,8.88
2023-05-17T20:38:59.681Z,8.90
2023-05-17T20:41:26.636Z,8.87
2023-05-17T20:43:53.985Z,8.96
2023-05-17T20:46:21.085Z,8.96
2023-05-17T20:48:50.033Z,8.92
2023-05-17T20:51:18.310Z,8.91
2023-05-17T20:53:46.772Z,8.96
2023-05-17T20:56:19.488Z,8.95
2023-05-17T20:58:48.124Z,8.95
2023-05-17T21:01:15.081Z,8.92
2023-05-17T21:03:43.450Z,8.90
2023-05-17T21:06:10.697Z,8.90
2023-05-17T21:08:37.858Z,8.90
2023-05-17T21:11:04.849Z,8.75
2023-05-17T21:13:31.794Z,8.83
2023-05-17T21:15:58.853Z,8.84
2023-05-17T21:18:25.888Z,8.74
2023-05-17T21:20:53.581Z,8.77
2023-05-17T21:23:20.601Z,8.70
2023-05-17T21:25:49.268Z,8.65
2023-05-17T21:28:16.213Z,8.69
2023-05-17T21:30:43.257Z,8.68
2023-05-17T21:33:10.389Z,8.67
2023-05-17T21:35:37.354Z,8.63
2023-05-17T21:38:04.291Z,8.56
2023-05-17T21:40:31.462Z,8.66
2023-05-17T21:42:58.754Z,8.62
2023-05-17T21:45:25.782Z,8.65
2023-05-17T21:47:52.947Z,8.54
2023-05-17T21:50:20.299Z,8.55
2023-05-17T21:52:47.270Z,8.50
2023-05-17T21:55:14.236Z,8.53
2023-05-17T21:57:41.165Z,8.28
2023-05-17T22:00:13.127Z,8.53
2023-05-17T22:02:41.137Z,8.49
2023-05-17T22:05:08.508Z,8.54
2023-05-17T22:07:35.951Z,8.56
2023-05-17T22:10:03.470Z,8.54
2023-05-17T22:12:30.456Z,8.56
2023-05-17T22:14:57.540Z,8.51
2023-05-17T22:17:39.229Z,8.52
2023-05-17T22:20:17.296Z,8.51
2023-05-17T22:22:44.622Z,8.53
2023-05-17T22:25:11.829Z,8.52
2023-05-17T22:27:38.777Z,8.53
2023-05-17T22:30:07.776Z,8.57
2023-05-17T22:32:34.910Z,8.52
2023-05-17T22:35:01.907Z,8.58
2023-05-17T22:37:30.539Z,8.60
2023-05-17T22:39:57.516Z,8.66
2023-05-17T22:42:24.424Z,8.63
2023-05-17T22:44:51.594Z,8.64
2023-05-17T22:47:23.203Z,8.61
2023-05-17T22:49:52.759Z,8.61
2023-05-17T22:52:20.137Z,8.62
2023-05-17T22:54:47.263Z,8.63
2023-05-17T22:57:14.549Z,8.65
2023-05-17T22:59:44.255Z,8.59
2023-05-17T23:02:14.623Z,8.57
2023-05-17T23:04:41.637Z,8.54
2023-05-17T23:07:10.309Z,8.51
2023-05-17T23:09:39.060Z,8.49
2023-05-17T23:12:06.623Z,8.49
2023-05-17T23:14:37.131Z,8.45
2023-05-17T23:17:05.215Z,8.41
2023-05-17T23:19:33.344Z,8.37
2023-05-17T23:22:04.315Z,8.40
2023-05-17T23:24:31.748Z,8.37
2023-05-17T23:26:59.084Z,8.35
2023-05-17T23:29:26.306Z,8.33
2023-05-17T23:31:53.908Z,8.36
2023-05-17T23:34:21.278Z,8.31
2023-05-17T23:36:48.214Z,8.27
2023-05-17T23:39:15.905Z,8.25
2023-05-17T23:41:43.228Z,8.28
2023-05-17T23:44:10.448Z,8.24
2023-05-17T23:46:37.687Z,8.26
2023-05-17T23:49:04.791Z,8.22
2023-05-17T23:51:35.058Z,8.22
2023-05-17T23:54:02.095Z,8.27
2023-05-17T23:56:29.215Z,8.20
2023-05-17T23:58:56.202Z,8.19
